sensor_id;sensor_type;location;lat;lon;timestamp;pressure;altitude;pressure_sealevel;temperature;humidity
74722;BME280;63470;49.826;6.740;2023-12-20T00:00:45;100327.98;;;6.87;71.50
74722;BME280;63470;49.826;6.740;2023-12-20T00:03:13;100329.33;;;6.87;71.50
74722;BME280;63470;49.826;6.740;2023-12-20T00:05:44;100322.41;;;6.87;71.52
74722;BME280;63470;49.826;6.740;2023-12-20T00:08:11;100318.88;;;6.87;71.52
74722;BME280;63470;49.826;6.740;2023-12-20T00:10:44;100323.64;;;6.87;71.53
74722;BME280;63470;49.826;6.740;2023-12-20T00:13:15;100331.59;;;6.87;71.56
74722;BME280;63470;49.826;6.740;2023-12-20T00:15:47;100332.77;;;6.89;71.56
74722;BME280;63470;49.826;6.740;2023-12-20T00:18:16;100325.70;;;6.90;71.56
74722;BME280;63470;49.826;6.740;2023-12-20T00:20:48;100322.11;;;6.91;71.56
74722;BME280;63470;49.826;6.740;2023-12-20T00:23:18;100320.87;;;6.92;71.55
74722;BME280;63470;49.826;6.740;2023-12-20T00:25:48;100319.56;;;6.92;71.52
74722;BME280;63470;49.826;6.740;2023-12-20T00:28:15;100324.55;;;6.92;71.45
74722;BME280;63470;49.826;6.740;2023-12-20T00:30:46;100329.48;;;6.90;71.46
74722;BME280;63470;49.826;6.740;2023-12-20T00:33:16;100319.63;;;6.90;71.50
74722;BME280;63470;49.826;6.740;2023-12-20T00:35:47;100310.61;;;6.90;71.50
74722;BME280;63470;49.826;6.740;2023-12-20T00:38:17;100311.94;;;6.89;71.46
74722;BME280;63470;49.826;6.740;2023-12-20T00:40:50;100307.24;;;6.87;71.46
74722;BME280;63470;49.826;6.740;2023-12-20T00:43:18;100297.41;;;6.85;71.48
74722;BME280;63470;49.826;6.740;2023-12-20T00:45:49;100293.64;;;6.84;71.53
74722;BME280;63470;49.826;6.740;2023-12-20T00:48:24;100299.62;;;6.84;71.56
74722;BME280;63470;49.826;6.740;2023-12-20T00:50:52;100294.28;;;6.83;71.61
74722;BME280;63470;49.826;6.740;2023-12-20T00:53:20;100300.52;;;6.83;71.64
74722;BME280;63470;49.826;6.740;2023-12-20T00:55:51;100307.24;;;6.83;71.66
74722;BME280;63470;49.826;6.740;2023-12-20T00:58:24;100311.84;;;6.83;71.67
74722;BME280;63470;49.826;6.740;2023-12-20T01:00:52;100309.29;;;6.83;71.69
74722;BME280;63470;49.826;6.740;2023-12-20T01:03:24;100299.70;;;6.84;71.67
74722;BME280;63470;49.826;6.740;2023-12-20T01:05:55;100299.03;;;6.85;71.68
74722;BME280;63470;49.826;6.740;2023-12-20T01:08:26;100312.73;;;6.85;71.72
74722;BME280;63470;49.826;6.740;2023-12-20T01:10:56;100329.98;;;6.87;71.74
74722;BME280;63470;49.826;6.740;2023-12-20T01:13:23;100324.07;;;6.88;71.79
74722;BME280;63470;49.826;6.740;2023-12-20T01:15:54;100321.12;;;6.92;71.80
74722;BME280;63470;49.826;6.740;2023-12-20T01:18:26;100320.30;;;6.95;71.83
74722;BME280;63470;49.826;6.740;2023-12-20T01:21:03;100302.23;;;6.97;71.82
74722;BME280;63470;49.826;6.740;2023-12-20T01:23:28;100306.19;;;6.98;71.85
74722;BME280;63470;49.826;6.740;2023-12-20T01:26:01;100307.74;;;7.00;71.88
74722;BME280;63470;49.826;6.740;2023-12-20T01:28:31;100309.54;;;6.99;71.90
74722;BME280;63470;49.826;6.740;2023-12-20T01:31:02;100318.64;;;7.01;71.93
74722;BME280;63470;49.826;6.740;2023-12-20T01:33:30;100318.23;;;7.01;71.95
74722;BME280;63470;49.826;6.740;2023-12-20T01:36:03;100311.77;;;7.03;71.91
74722;BME280;63470;49.826;6.740;2023-12-20T01:38:33;100308.32;;;7.04;71.93
74722;BME280;63470;49.826;6.740;2023-12-20T01:41:02;100308.05;;;7.05;71.91
74722;BME280;63470;49.826;6.740;2023-12-20T01:43:30;100306.44;;;7.06;71.88
74722;BME280;63470;49.826;6.740;2023-12-20T01:46:00;100304.70;;;7.08;71.86
74722;BME280;63470;49.826;6.740;2023-12-20T01:48:37;100311.02;;;7.09;71.85
74722;BME280;63470;49.826;6.740;2023-12-20T01:51:02;100310.62;;;7.11;71.81
74722;BME280;63470;49.826;6.740;2023-12-20T01:53:36;100309.70;;;7.11;71.80
74722;BME280;63470;49.826;6.740;2023-12-20T01:56:07;100311.94;;;7.13;71.82
74722;BME280;63470;49.826;6.740;2023-12-20T01:58:33;100309.38;;;7.14;71.81
74722;BME280;63470;49.826;6.740;2023-12-20T02:01:03;100314.62;;;7.16;71.81
74722;BME280;63470;49.826;6.740;2023-12-20T02:03:35;100317.99;;;7.18;71.80
74722;BME280;63470;49.826;6.740;2023-12-20T02:06:07;100317.08;;;7.20;71.73
74722;BME280;63470;49.826;6.740;2023-12-20T02:08:39;100323.25;;;7.23;71.69
74722;BME280;63470;49.826;6.740;2023-12-20T02:11:07;100330.30;;;7.26;71.65
74722;BME280;63470;49.826;6.740;2023-12-20T02:13:37;100331.45;;;7.29;71.60
74722;BME280;63470;49.826;6.740;2023-12-20T02:16:09;100329.31;;;7.31;71.55
74722;BME280;63470;49.826;6.740;2023-12-20T02:18:40;100330.61;;;7.32;71.49
74722;BME280;63470;49.826;6.740;2023-12-20T02:21:10;100326.59;;;7.35;71.47
74722;BME280;63470;49.826;6.740;2023-12-20T02:23:38;100334.15;;;7.37;71.41
74722;BME280;63470;49.826;6.740;2023-12-20T02:26:12;100337.00;;;7.40;71.39
74722;BME280;63470;49.826;6.740;2023-12-20T02:28:37;100337.98;;;7.44;71.31
74722;BME280;63470;49.826;6.740;2023-12-20T02:31:15;100337.73;;;7.46;71.25
74722;BME280;63470;49.826;6.740;2023-12-20T02:33:42;100342.73;;;7.48;71.20
74722;BME280;63470;49.826;6.740;2023-12-20T02:36:14;100339.37;;;7.50;71.16
74722;BME280;63470;49.826;6.740;2023-12-20T02:38:42;100341.27;;;7.53;71.07
74722;BME280;63470;49.826;6.740;2023-12-20T02:41:12;100338.23;;;7.53;71.04
74722;BME280;63470;49.826;6.740;2023-12-20T02:43:45;100334.28;;;7.53;70.99
74722;BME280;63470;49.826;6.740;2023-12-20T02:46:11;100329.84;;;7.52;70.96
74722;BME280;63470;49.826;6.740;2023-12-20T02:48:41;100344.03;;;7.51;71.00
74722;BME280;63470;49.826;6.740;2023-12-20T02:51:12;100342.81;;;7.50;71.05
74722;BME280;63470;49.826;6.740;2023-12-20T02:53:42;100332.48;;;7.49;71.06
74722;BME280;63470;49.826;6.740;2023-12-20T02:56:14;100344.72;;;7.45;71.04
74722;BME280;63470;49.826;6.740;2023-12-20T02:58:43;100346.68;;;7.42;71.10
74722;BME280;63470;49.826;6.740;2023-12-20T03:01:15;100349.89;;;7.40;71.13
74722;BME280;63470;49.826;6.740;2023-12-20T03:03:44;100347.11;;;7.37;71.20
74722;BME280;63470;49.826;6.740;2023-12-20T03:06:23;100354.34;;;7.35;71.20
74722;BME280;63470;49.826;6.740;2023-12-20T03:08:48;100366.89;;;7.34;71.26
74722;BME280;63470;49.826;6.740;2023-12-20T03:11:21;100374.29;;;7.35;71.28
74722;BME280;63470;49.826;6.740;2023-12-20T03:13:46;100384.30;;;7.35;71.28
74722;BME280;63470;49.826;6.740;2023-12-20T03:16:17;100385.92;;;7.33;71.29
74722;BME280;63470;49.826;6.740;2023-12-20T03:18:48;100389.06;;;7.33;71.33
74722;BME280;63470;49.826;6.740;2023-12-20T03:21:23;100391.03;;;7.33;71.33
74722;BME280;63470;49.826;6.740;2023-12-20T03:23:49;100393.42;;;7.33;71.30
74722;BME280;63470;49.826;6.740;2023-12-20T03:26:19;100399.80;;;7.34;71.22
74722;BME280;63470;49.826;6.740;2023-12-20T03:28:50;100407.28;;;7.33;71.22
74722;BME280;63470;49.826;6.740;2023-12-20T03:31:22;100407.77;;;7.28;71.19
74722;BME280;63470;49.826;6.740;2023-12-20T03:33:54;100417.78;;;7.19;71.19
74722;BME280;63470;49.826;6.740;2023-12-20T03:36:21;100419.33;;;7.10;71.25
74722;BME280;63470;49.826;6.740;2023-12-20T03:38:52;100424.98;;;7.04;71.27
74722;BME280;63470;49.826;6.740;2023-12-20T03:41:25;100436.11;;;6.95;71.21
74722;BME280;63470;49.826;6.740;2023-12-20T03:43:56;100437.97;;;6.85;71.29
74722;BME280;63470;49.826;6.740;2023-12-20T03:46:28;100432.48;;;6.78;71.31
74722;BME280;63470;49.826;6.740;2023-12-20T03:48:56;100436.73;;;6.70;71.28
74722;BME280;63470;49.826;6.740;2023-12-20T03:51:27;100439.70;;;6.59;71.25
74722;BME280;63470;49.826;6.740;2023-12-20T03:53:55;100440.80;;;6.45;71.30
74722;BME280;63470;49.826;6.740;2023-12-20T03:56:26;100443.48;;;6.39;71.42
74722;BME280;63470;49.826;6.740;2023-12-20T03:59:01;100446.27;;;6.37;71.49
74722;BME280;63470;49.826;6.740;2023-12-20T04:01:26;100442.23;;;6.31;71.55
74722;BME280;63470;49.826;6.740;2023-12-20T04:03:57;100444.56;;;6.23;71.56
74722;BME280;63470;49.826;6.740;2023-12-20T04:06:27;100439.60;;;6.15;71.56
74722;BME280;63470;49.826;6.740;2023-12-20T04:08:58;100445.56;;;6.11;71.50
74722;BME280;63470;49.826;6.740;2023-12-20T04:11:28;100452.42;;;6.07;71.49
74722;BME280;63470;49.826;6.740;2023-12-20T04:13:58;100455.59;;;6.06;71.54
74722;BME280;63470;49.826;6.740;2023-12-20T04:16:29;100446.95;;;6.13;71.57
74722;BME280;63470;49.826;6.740;2023-12-20T04:18:59;100431.11;;;6.21;71.53
74722;BME280;63470;49.826;6.740;2023-12-20T04:21:32;100424.84;;;6.26;71.40
74722;BME280;63470;49.826;6.740;2023-12-20T04:24:05;100433.84;;;6.28;71.39
74722;BME280;63470;49.826;6.740;2023-12-20T04:26:30;100438.19;;;6.29;71.38
74722;BME280;63470;49.826;6.740;2023-12-20T04:29:01;100442.36;;;6.28;71.43
74722;BME280;63470;49.826;6.740;2023-12-20T04:31:32;100440.14;;;6.28;71.45
74722;BME280;63470;49.826;6.740;2023-12-20T04:34:02;100442.05;;;6.27;71.41
74722;BME280;63470;49.826;6.740;2023-12-20T04:36:32;100436.30;;;6.27;71.39
74722;BME280;63470;49.826;6.740;2023-12-20T04:39:03;100439.34;;;6.26;71.41
74722;BME280;63470;49.826;6.740;2023-12-20T04:41:34;100438.92;;;6.24;71.41
74722;BME280;63470;49.826;6.740;2023-12-20T04:44:05;100443.55;;;6.19;71.36
74722;BME280;63470;49.826;6.740;2023-12-20T04:46:35;100448.75;;;6.13;71.36
74722;BME280;63470;49.826;6.740;2023-12-20T04:49:08;100452.77;;;6.08;71.40
74722;BME280;63470;49.826;6.740;2023-12-20T04:51:44;100449.45;;;6.03;71.37
74722;BME280;63470;49.826;6.740;2023-12-20T04:54:06;100455.14;;;5.98;71.33
74722;BME280;63470;49.826;6.740;2023-12-20T04:56:42;100458.14;;;5.91;71.35
74722;BME280;63470;49.826;6.740;2023-12-20T04:59:10;100473.27;;;5.86;71.43
74722;BME280;63470;49.826;6.740;2023-12-20T05:01:42;100480.58;;;5.83;71.43
74722;BME280;63470;49.826;6.740;2023-12-20T05:04:08;100482.12;;;5.81;71.38
74722;BME280;63470;49.826;6.740;2023-12-20T05:06:38;100491.38;;;5.83;71.38
74722;BME280;63470;49.826;6.740;2023-12-20T05:09:10;100486.50;;;5.85;71.37
74722;BME280;63470;49.826;6.740;2023-12-20T05:11:44;100483.77;;;5.89;71.30
74722;BME280;63470;49.826;6.740;2023-12-20T05:14:10;100479.34;;;5.92;71.26
74722;BME280;63470;49.826;6.740;2023-12-20T05:16:46;100476.18;;;5.95;71.22
74722;BME280;63470;49.826;6.740;2023-12-20T05:19:19;100485.61;;;5.98;71.17
74722;BME280;63470;49.826;6.740;2023-12-20T05:21:45;100495.47;;;6.02;71.16
74722;BME280;63470;49.826;6.740;2023-12-20T05:24:17;100489.02;;;6.05;71.14
74722;BME280;63470;49.826;6.740;2023-12-20T05:26:43;100487.91;;;6.08;71.09
74722;BME280;63470;49.826;6.740;2023-12-20T05:29:13;100480.03;;;6.09;71.05
74722;BME280;63470;49.826;6.740;2023-12-20T05:31:44;100476.34;;;6.08;71.02
74722;BME280;63470;49.826;6.740;2023-12-20T05:34:15;100476.65;;;6.06;70.97
74722;BME280;63470;49.826;6.740;2023-12-20T05:36:45;100477.45;;;6.04;70.97
74722;BME280;63470;49.826;6.740;2023-12-20T05:39:16;100480.41;;;6.03;71.00
74722;BME280;63470;49.826;6.740;2023-12-20T05:41:46;100489.77;;;6.04;71.01
74722;BME280;63470;49.826;6.740;2023-12-20T05:44:17;100496.16;;;6.05;70.98
74722;BME280;63470;49.826;6.740;2023-12-20T05:46:52;100504.34;;;6.06;70.95
74722;BME280;63470;49.826;6.740;2023-12-20T05:49:22;100506.64;;;6.07;70.95
74722;BME280;63470;49.826;6.740;2023-12-20T05:51:53;100501.73;;;6.07;70.93
74722;BME280;63470;49.826;6.740;2023-12-20T05:54:23;100504.42;;;6.05;70.89
74722;BME280;63470;49.826;6.740;2023-12-20T05:56:54;100508.33;;;6.01;70.89
74722;BME280;63470;49.826;6.740;2023-12-20T05:59:20;100506.07;;;5.96;70.94
74722;BME280;63470;49.826;6.740;2023-12-20T06:01:53;100512.67;;;5.90;71.04
74722;BME280;63470;49.826;6.740;2023-12-20T06:04:24;100515.35;;;5.86;71.14
74722;BME280;63470;49.826;6.740;2023-12-20T06:06:57;100512.23;;;5.85;71.23
74722;BME280;63470;49.826;6.740;2023-12-20T06:09:22;100520.41;;;5.86;71.25
74722;BME280;63470;49.826;6.740;2023-12-20T06:11:55;100524.20;;;5.90;71.21
74722;BME280;63470;49.826;6.740;2023-12-20T06:14:28;100521.94;;;5.93;71.14
74722;BME280;63470;49.826;6.740;2023-12-20T06:16:57;100519.90;;;5.93;71.06
74722;BME280;63470;49.826;6.740;2023-12-20T06:19:26;100521.02;;;5.90;71.08
74722;BME280;63470;49.826;6.740;2023-12-20T06:21:55;100519.86;;;5.88;71.12
74722;BME280;63470;49.826;6.740;2023-12-20T06:24:33;100524.88;;;5.89;71.17
74722;BME280;63470;49.826;6.740;2023-12-20T06:26:56;100523.73;;;5.91;71.19
74722;BME280;63470;49.826;6.740;2023-12-20T06:29:26;100521.05;;;5.93;71.20
74722;BME280;63470;49.826;6.740;2023-12-20T06:31:57;100518.75;;;5.94;71.19
74722;BME280;63470;49.826;6.740;2023-12-20T06:34:27;100519.89;;;5.94;71.17
74722;BME280;63470;49.826;6.740;2023-12-20T06:36:58;100522.95;;;5.94;71.20
74722;BME280;63470;49.826;6.740;2023-12-20T06:39:31;100512.80;;;5.94;71.20
74722;BME280;63470;49.826;6.740;2023-12-20T06:41:59;100518.02;;;5.94;71.20
74722;BME280;63470;49.826;6.740;2023-12-20T06:44:37;100517.36;;;5.93;71.20
74722;BME280;63470;49.826;6.740;2023-12-20T06:47:00;100517.67;;;5.92;71.16
74722;BME280;63470;49.826;6.740;2023-12-20T06:49:31;100521.52;;;5.89;71.16
74722;BME280;63470;49.826;6.740;2023-12-20T06:52:01;100521.08;;;5.87;71.22
74722;BME280;63470;49.826;6.740;2023-12-20T06:54:32;100524.68;;;5.87;71.27
74722;BME280;63470;49.826;6.740;2023-12-20T06:57:04;100531.14;;;5.86;71.29
74722;BME280;63470;49.826;6.740;2023-12-20T06:59:33;100529.83;;;5.85;71.27
74722;BME280;63470;49.826;6.740;2023-12-20T07:02:03;100524.61;;;5.81;71.29
74722;BME280;63470;49.826;6.740;2023-12-20T07:04:39;100527.45;;;5.79;71.34
74722;BME280;63470;49.826;6.740;2023-12-20T07:07:04;100523.17;;;5.76;71.37
74722;BME280;63470;49.826;6.740;2023-12-20T07:09:35;100527.09;;;5.76;71.40
74722;BME280;63470;49.826;6.740;2023-12-20T07:12:06;100531.84;;;5.76;71.40
74722;BME280;63470;49.826;6.740;2023-12-20T07:14:36;100530.53;;;5.76;71.38
74722;BME280;63470;49.826;6.740;2023-12-20T07:17:14;100529.80;;;5.76;71.34
74722;BME280;63470;49.826;6.740;2023-12-20T07:19:37;100527.49;;;5.76;71.36
74722;BME280;63470;49.826;6.740;2023-12-20T07:22:08;100535.45;;;5.76;71.32
74722;BME280;63470;49.826;6.740;2023-12-20T07:24:46;100536.17;;;5.76;71.31
74722;BME280;63470;49.826;6.740;2023-12-20T07:27:10;100538.30;;;5.76;71.34
74722;BME280;63470;49.826;6.740;2023-12-20T07:29:43;100534.23;;;5.77;71.36
74722;BME280;63470;49.826;6.740;2023-12-20T07:32:17;100543.28;;;5.80;71.38
74722;BME280;63470;49.826;6.740;2023-12-20T07:34:46;100547.95;;;5.82;71.41
74722;BME280;63470;49.826;6.740;2023-12-20T07:37:12;100550.88;;;5.85;71.39
74722;BME280;63470;49.826;6.740;2023-12-20T07:39:42;100557.62;;;5.88;71.39
74722;BME280;63470;49.826;6.740;2023-12-20T07:42:12;100550.02;;;5.90;71.36
74722;BME280;63470;49.826;6.740;2023-12-20T07:44:43;100554.05;;;5.93;71.33
74722;BME280;63470;49.826;6.740;2023-12-20T07:47:19;100546.13;;;5.96;71.31
74722;BME280;63470;49.826;6.740;2023-12-20T07:49:44;100540.81;;;5.98;71.29
74722;BME280;63470;49.826;6.740;2023-12-20T07:52:14;100550.83;;;6.02;71.27
74722;BME280;63470;49.826;6.740;2023-12-20T07:54:47;100545.30;;;6.05;71.26
74722;BME280;63470;49.826;6.740;2023-12-20T07:57:20;100549.81;;;6.08;71.25
74722;BME280;63470;49.826;6.740;2023-12-20T07:59:46;100552.38;;;6.11;71.27
74722;BME280;63470;49.826;6.740;2023-12-20T08:02:17;100553.14;;;6.15;71.24
74722;BME280;63470;49.826;6.740;2023-12-20T08:04:50;100555.24;;;6.20;71.22
74722;BME280;63470;49.826;6.740;2023-12-20T08:07:23;100553.11;;;6.22;71.20
74722;BME280;63470;49.826;6.740;2023-12-20T08:09:51;100555.28;;;6.25;71.17
74722;BME280;63470;49.826;6.740;2023-12-20T08:12:19;100556.59;;;6.28;71.16
74722;BME280;63470;49.826;6.740;2023-12-20T08:14:54;100550.47;;;6.30;71.15
74722;BME280;63470;49.826;6.740;2023-12-20T08:17:25;100551.96;;;6.32;71.14
74722;BME280;63470;49.826;6.740;2023-12-20T08:19:53;100556.40;;;6.34;71.13
74722;BME280;63470;49.826;6.740;2023-12-20T08:22:25;100557.05;;;6.35;71.13
74722;BME280;63470;49.826;6.740;2023-12-20T08:24:53;100562.98;;;6.38;71.09
74722;BME280;63470;49.826;6.740;2023-12-20T08:27:24;100569.21;;;6.41;71.08
74722;BME280;63470;49.826;6.740;2023-12-20T08:29:55;100569.00;;;6.44;71.11
74722;BME280;63470;49.826;6.740;2023-12-20T08:32:25;100563.20;;;6.48;71.14
74722;BME280;63470;49.826;6.740;2023-12-20T08:34:53;100569.70;;;6.52;71.11
74722;BME280;63470;49.826;6.740;2023-12-20T08:37:29;100570.21;;;6.54;71.09
74722;BME280;63470;49.826;6.740;2023-12-20T08:39:59;100561.20;;;6.56;71.11
74722;BME280;63470;49.826;6.740;2023-12-20T08:42:34;100558.84;;;6.60;71.11
74722;BME280;63470;49.826;6.740;2023-12-20T08:44:58;100559.86;;;6.64;71.10
74722;BME280;63470;49.826;6.740;2023-12-20T08:47:28;100564.70;;;6.69;71.06
74722;BME280;63470;49.826;6.740;2023-12-20T08:50:00;100567.03;;;6.72;71.09
74722;BME280;63470;49.826;6.740;2023-12-20T08:52:30;100564.83;;;6.77;71.17
74722;BME280;63470;49.826;6.740;2023-12-20T08:55:03;100562.75;;;6.87;71.16
74722;BME280;63470;49.826;6.740;2023-12-20T08:57:32;100556.62;;;6.94;71.13
74722;BME280;63470;49.826;6.740;2023-12-20T09:00:02;100553.59;;;6.99;71.10
74722;BME280;63470;49.826;6.740;2023-12-20T09:02:32;100561.06;;;6.99;71.09
74722;BME280;63470;49.826;6.740;2023-12-20T09:05:03;100557.55;;;7.00;71.12
74722;BME280;63470;49.826;6.740;2023-12-20T09:07:35;100559.44;;;7.01;71.14
74722;BME280;63470;49.826;6.740;2023-12-20T09:10:07;100561.83;;;7.04;71.11
74722;BME280;63470;49.826;6.740;2023-12-20T09:12:34;100561.11;;;7.08;71.08
74722;BME280;63470;49.826;6.740;2023-12-20T09:15:09;100562.85;;;7.14;71.07
74722;BME280;63470;49.826;6.740;2023-12-20T09:17:33;100562.06;;;7.23;71.09
74722;BME280;63470;49.826;6.740;2023-12-20T09:20:08;100565.28;;;7.36;71.13
74722;BME280;63470;49.826;6.740;2023-12-20T09:22:36;100568.20;;;7.52;71.05
74722;BME280;63470;49.826;6.740;2023-12-20T09:25:06;100566.64;;;7.64;71.06
74722;BME280;63470;49.826;6.740;2023-12-20T09:27:35;100565.84;;;7.69;70.97
74722;BME280;63470;49.826;6.740;2023-12-20T09:30:06;100569.94;;;7.68;70.95
74722;BME280;63470;49.826;6.740;2023-12-20T09:32:36;100566.75;;;7.65;70.98
74722;BME280;63470;49.826;6.740;2023-12-20T09:35:09;100570.84;;;7.64;71.05
74722;BME280;63470;49.826;6.740;2023-12-20T09:37:36;100572.89;;;7.64;71.10
74722;BME280;63470;49.826;6.740;2023-12-20T09:40:11;100568.61;;;7.62;71.07
74722;BME280;63470;49.826;6.740;2023-12-20T09:45:13;100563.28;;;7.60;71.12
74722;BME280;63470;49.826;6.740;2023-12-20T09:47:38;100563.92;;;7.61;71.16
74722;BME280;63470;49.826;6.740;2023-12-20T09:50:09;100566.39;;;7.61;71.10
74722;BME280;63470;49.826;6.740;2023-12-20T09:52:43;100571.17;;;7.60;71.13
74722;BME280;63470;49.826;6.740;2023-12-20T09:55:11;100577.16;;;7.60;71.18
74722;BME280;63470;49.826;6.740;2023-12-20T09:57:42;100577.17;;;7.63;71.11
74722;BME280;63470;49.826;6.740;2023-12-20T10:00:14;100574.78;;;7.64;71.10
74722;BME280;63470;49.826;6.740;2023-12-20T10:03:01;100561.33;;;7.69;71.10
74722;BME280;63470;49.826;6.740;2023-12-20T10:05:16;100564.04;;;7.78;71.12
74722;BME280;63470;49.826;6.740;2023-12-20T10:07:50;100559.11;;;7.90;71.06
74722;BME280;63470;49.826;6.740;2023-12-20T10:10:13;100553.17;;;8.16;71.01
74722;BME280;63470;49.826;6.740;2023-12-20T10:13:07;100553.97;;;8.53;70.69
74722;BME280;63470;49.826;6.740;2023-12-20T10:15:19;100550.69;;;8.79;70.48
74722;BME280;63470;49.826;6.740;2023-12-20T10:17:44;100543.14;;;8.93;70.42
74722;BME280;63470;49.826;6.740;2023-12-20T10:20:15;100532.90;;;9.01;70.37
74722;BME280;63470;49.826;6.740;2023-12-20T10:22:48;100531.98;;;9.06;70.43
74722;BME280;63470;49.826;6.740;2023-12-20T10:25:16;100529.86;;;8.99;70.58
74722;BME280;63470;49.826;6.740;2023-12-20T10:27:49;100537.00;;;8.87;70.79
74722;BME280;63470;49.826;6.740;2023-12-20T10:30:19;100536.13;;;8.77;70.88
74722;BME280;63470;49.826;6.740;2023-12-20T10:32:48;100536.77;;;8.66;70.99
74722;BME280;63470;49.826;6.740;2023-12-20T10:35:23;100531.61;;;8.56;71.05
74722;BME280;63470;49.826;6.740;2023-12-20T10:37:55;100530.55;;;8.46;71.16
74722;BME280;63470;49.826;6.740;2023-12-20T10:40:21;100530.98;;;8.39;71.19
74722;BME280;63470;49.826;6.740;2023-12-20T10:42:52;100530.19;;;8.29;71.25
74722;BME280;63470;49.826;6.740;2023-12-20T10:45:22;100527.13;;;8.21;71.32
74722;BME280;63470;49.826;6.740;2023-12-20T10:47:55;100525.42;;;8.11;71.35
74722;BME280;63470;49.826;6.740;2023-12-20T10:50:24;100537.11;;;8.01;71.40
74722;BME280;63470;49.826;6.740;2023-12-20T10:53:01;100531.17;;;7.94;71.42
74722;BME280;63470;49.826;6.740;2023-12-20T10:55:27;100527.58;;;7.87;71.45
74722;BME280;63470;49.826;6.740;2023-12-20T10:58:01;100527.98;;;7.83;71.46
74722;BME280;63470;49.826;6.740;2023-12-20T11:00:29;100530.36;;;7.80;71.49
74722;BME280;63470;49.826;6.740;2023-12-20T11:03:01;100527.25;;;7.79;71.50
74722;BME280;63470;49.826;6.740;2023-12-20T11:08:09;100530.13;;;7.80;71.45
74722;BME280;63470;49.826;6.740;2023-12-20T11:10:31;100520.52;;;7.81;71.48
74722;BME280;63470;49.826;6.740;2023-12-20T11:13:08;100519.34;;;7.86;71.44
74722;BME280;63470;49.826;6.740;2023-12-20T11:15:32;100515.41;;;7.90;71.37
74722;BME280;63470;49.826;6.740;2023-12-20T11:18:00;100512.62;;;7.93;71.28
74722;BME280;63470;49.826;6.740;2023-12-20T11:20:40;100502.01;;;7.94;71.26
74722;BME280;63470;49.826;6.740;2023-12-20T11:23:03;100498.90;;;7.95;71.23
74722;BME280;63470;49.826;6.740;2023-12-20T11:28:09;100494.95;;;7.97;71.20
74722;BME280;63470;49.826;6.740;2023-12-20T11:30:40;100487.22;;;7.97;71.21
74722;BME280;63470;49.826;6.740;2023-12-20T11:33:00;100486.23;;;7.95;71.26
74722;BME280;63470;49.826;6.740;2023-12-20T11:35:35;100491.17;;;7.95;71.27
74722;BME280;63470;49.826;6.740;2023-12-20T11:38:04;100497.58;;;7.97;71.31
74722;BME280;63470;49.826;6.740;2023-12-20T11:40:36;100497.48;;;7.96;71.28
74722;BME280;63470;49.826;6.740;2023-12-20T11:43:07;100497.81;;;7.95;71.29
74722;BME280;63470;49.826;6.740;2023-12-20T11:45:33;100497.17;;;7.93;71.29
74722;BME280;63470;49.826;6.740;2023-12-20T11:48:09;100497.75;;;7.89;71.30
74722;BME280;63470;49.826;6.740;2023-12-20T11:50:34;100495.70;;;7.85;71.32
74722;BME280;63470;49.826;6.740;2023-12-20T11:53:09;100501.05;;;7.83;71.37
74722;BME280;63470;49.826;6.740;2023-12-20T11:55:34;100497.84;;;7.81;71.35
74722;BME280;63470;49.826;6.740;2023-12-20T11:58:05;100499.41;;;7.79;71.32
74722;BME280;63470;49.826;6.740;2023-12-20T12:00:41;100498.58;;;7.79;71.36
74722;BME280;63470;49.826;6.740;2023-12-20T12:03:14;100498.42;;;7.78;71.35
74722;BME280;63470;49.826;6.740;2023-12-20T12:05:39;100496.34;;;7.74;71.35
74722;BME280;63470;49.826;6.740;2023-12-20T12:08:06;100497.17;;;7.70;71.35
74722;BME280;63470;49.826;6.740;2023-12-20T12:10:42;100499.49;;;7.65;71.37
74722;BME280;63470;49.826;6.740;2023-12-20T12:13:07;100497.98;;;7.62;71.45
74722;BME280;63470;49.826;6.740;2023-12-20T12:15:43;100491.52;;;7.60;71.46
74722;BME280;63470;49.826;6.740;2023-12-20T12:18:11;100494.55;;;7.61;71.43
74722;BME280;63470;49.826;6.740;2023-12-20T12:20:41;100491.77;;;7.61;71.44
74722;BME280;63470;49.826;6.740;2023-12-20T12:23:12;100475.58;;;7.64;71.45
74722;BME280;63470;49.826;6.740;2023-12-20T12:25:44;100471.14;;;7.71;71.38
74722;BME280;63470;49.826;6.740;2023-12-20T12:28:14;100459.88;;;7.76;71.34
74722;BME280;63470;49.826;6.740;2023-12-20T12:30:56;100455.70;;;7.88;71.33
74722;BME280;63470;49.826;6.740;2023-12-20T12:33:17;100446.47;;;7.97;71.24
74722;BME280;63470;49.826;6.740;2023-12-20T12:35:46;100444.14;;;8.11;71.21
74722;BME280;63470;49.826;6.740;2023-12-20T12:38:14;100441.57;;;8.27;71.19
74722;BME280;63470;49.826;6.740;2023-12-20T12:40:46;100445.08;;;8.58;71.05
74722;BME280;63470;49.826;6.740;2023-12-20T12:43:18;100440.61;;;8.64;70.97
74722;BME280;63470;49.826;6.740;2023-12-20T12:45:53;100445.94;;;8.50;71.06
74722;BME280;63470;49.826;6.740;2023-12-20T12:48:21;100441.80;;;8.34;71.21
74722;BME280;63470;49.826;6.740;2023-12-20T12:50:49;100426.02;;;8.19;71.37
74722;BME280;63470;49.826;6.740;2023-12-20T12:53:22;100427.93;;;8.13;71.46
74722;BME280;63470;49.826;6.740;2023-12-20T12:55:51;100420.97;;;8.09;71.49
74722;BME280;63470;49.826;6.740;2023-12-20T12:58:21;100425.09;;;8.10;71.48
74722;BME280;63470;49.826;6.740;2023-12-20T13:00:51;100416.45;;;8.09;71.45
74722;BME280;63470;49.826;6.740;2023-12-20T13:03:21;100418.17;;;8.07;71.44
74722;BME280;63470;49.826;6.740;2023-12-20T13:05:52;100415.81;;;8.01;71.44
74722;BME280;63470;49.826;6.740;2023-12-20T13:08:27;100410.48;;;7.99;71.42
74722;BME280;63470;49.826;6.740;2023-12-20T13:10:55;100411.21;;;7.96;71.39
74722;BME280;63470;49.826;6.740;2023-12-20T13:13:23;100406.22;;;7.93;71.42
74722;BME280;63470;49.826;6.740;2023-12-20T13:15:58;100401.20;;;7.90;71.47
74722;BME280;63470;49.826;6.740;2023-12-20T13:18:23;100395.13;;;7.91;71.48
74722;BME280;63470;49.826;6.740;2023-12-20T13:20:54;100388.63;;;7.93;71.47
74722;BME280;63470;49.826;6.740;2023-12-20T13:23:24;100388.39;;;7.95;71.39